createdAt,value
2018-12-30T00:03:17.225Z,6.29
2018-12-30T00:08:25.378Z,6.30
2018-12-30T00:13:33.040Z,6.31
2018-12-30T00:18:40.972Z,6.31
2018-12-30T00:23:48.251Z,6.26
2018-12-30T00:28:55.189Z,6.23
2018-12-30T00:34:01.987Z,6.28
2018-12-30T00:39:11.843Z,6.30
2018-12-30T00:44:19.513Z,6.27
2018-12-30T00:49:30.900Z,6.36
2018-12-30T00:54:38.042Z,6.36
2018-12-30T00:59:44.213Z,6.36
2018-12-30T01:04:51.215Z,6.43
2018-12-30T01:09:58.496Z,6.45
2018-12-30T01:15:07.771Z,6.41
2018-12-30T01:20:37.474Z,6.44
2018-12-30T01:25:45.781Z,6.40
2018-12-30T01:30:51.204Z,6.40
2018-12-30T01:35:56.470Z,6.42
2018-12-30T01:41:02.202Z,6.34
2018-12-30T01:46:07.542Z,6.23
2018-12-30T01:51:12.829Z,6.20
2018-12-30T01:56:19.422Z,6.29
2018-12-30T02:01:26.054Z,6.24
2018-12-30T02:06:31.902Z,6.26
2018-12-30T02:11:39.522Z,6.23
2018-12-30T02:16:44.879Z,6.31
2018-12-30T02:21:51.713Z,6.33
2018-12-30T02:27:06.985Z,6.41
2018-12-30T02:32:15.002Z,6.45
2018-12-30T02:37:23.121Z,6.48
2018-12-30T02:42:29.066Z,6.49
2018-12-30T02:47:35.834Z,6.57
2018-12-30T02:52:42.092Z,6.53
2018-12-30T02:57:48.040Z,6.50
2018-12-30T03:02:59.037Z,6.54
2018-12-30T03:08:04.742Z,6.65
2018-12-30T03:13:10.090Z,6.59
2018-12-30T03:18:15.620Z,6.55
2018-12-30T03:23:20.936Z,6.59
2018-12-30T03:28:31.476Z,6.65
2018-12-30T03:33:39.774Z,6.65
2018-12-30T03:38:46.276Z,6.67
2018-12-30T03:43:52.733Z,6.74
2018-12-30T03:48:59.029Z,6.68
2018-12-30T03:54:03.999Z,6.75
2018-12-30T03:59:09.331Z,6.81
2018-12-30T04:04:18.194Z,6.88
2018-12-30T04:09:23.800Z,6.93
2018-12-30T04:14:29.220Z,6.98
2018-12-30T04:19:36.258Z,6.97
2018-12-30T04:24:41.267Z,7.09
2018-12-30T04:29:47.319Z,7.16
2018-12-30T04:34:56.597Z,7.24
2018-12-30T04:40:05.343Z,7.14
2018-12-30T04:45:24.901Z,7.07
2018-12-30T04:50:29.970Z,7.01
2018-12-30T04:55:34.952Z,6.97
2018-12-30T05:00:40.957Z,6.92
2018-12-30T05:05:49.030Z,6.92
2018-12-30T05:10:54.114Z,6.86
2018-12-30T05:16:01.740Z,6.81
2018-12-30T05:21:08.252Z,6.82
2018-12-30T05:26:13.801Z,6.75
2018-12-30T05:31:19.717Z,6.75
2018-12-30T05:36:24.824Z,6.68
2018-12-30T05:41:30.231Z,6.67
2018-12-30T05:46:36.695Z,6.62
2018-12-30T05:51:42.110Z,6.60
2018-12-30T05:56:50.694Z,6.54
2018-12-30T06:01:57.296Z,6.54
2018-12-30T06:07:03.230Z,6.49
2018-12-30T06:12:08.286Z,6.51
2018-12-30T06:17:17.484Z,6.54
2018-12-30T06:22:23.038Z,6.61
2018-12-30T06:27:28.399Z,6.71
2018-12-30T06:32:33.546Z,6.75
2018-12-30T06:37:42.560Z,6.75
2018-12-30T06:42:47.948Z,6.76
2018-12-30T06:47:55.338Z,6.72
2018-12-30T06:53:01.574Z,6.77
2018-12-30T06:58:07.222Z,6.78
2018-12-30T07:03:12.641Z,6.80
2018-12-30T07:08:18.865Z,6.77
2018-12-30T07:13:24.436Z,6.79
2018-12-30T07:18:34.612Z,6.77
2018-12-30T07:23:39.951Z,6.77
2018-12-30T07:28:45.666Z,6.74
2018-12-30T07:33:51.010Z,6.79
2018-12-30T07:38:56.638Z,6.79
2018-12-30T07:44:21.994Z,6.74
2018-12-30T07:49:31.582Z,6.78
2018-12-30T07:54:39.062Z,6.74
2018-12-30T08:00:04.306Z,6.72
2018-12-30T08:05:12.142Z,6.65
2018-12-30T08:10:22.502Z,6.66
2018-12-30T08:15:27.685Z,6.70
2018-12-30T08:20:33.908Z,6.77
2018-12-30T08:25:40.302Z,6.81
2018-12-30T08:30:46.525Z,6.92
2018-12-30T08:35:51.807Z,6.98
2018-12-30T08:40:57.353Z,7.06
2018-12-30T08:46:03.589Z,7.05
2018-12-30T08:51:18.801Z,7.03
2018-12-30T08:56:23.955Z,7.04
2018-12-30T09:01:29.037Z,7.06
2018-12-30T09:06:34.458Z,7.08
2018-12-30T09:11:40.105Z,7.16
2018-12-30T09:16:45.529Z,7.22
2018-12-30T09:21:50.699Z,7.19
2018-12-30T09:26:56.102Z,7.22
2018-12-30T09:32:01.541Z,7.39
2018-12-30T09:37:07.378Z,7.38
2018-12-30T09:42:17.408Z,7.34
2018-12-30T09:47:25.838Z,7.34
2018-12-30T09:52:30.982Z,7.37
2018-12-30T09:57:36.106Z,7.42
2018-12-30T10:02:43.346Z,7.50
2018-12-30T10:07:49.721Z,7.47
2018-12-30T10:12:55.143Z,7.54
2018-12-30T10:18:00.832Z,7.61
2018-12-30T10:23:05.975Z,7.60
2018-12-30T10:28:11.265Z,7.64
2018-12-30T10:33:17.574Z,7.63
2018-12-30T10:38:22.825Z,7.68
2018-12-30T10:43:28.376Z,7.82
2018-12-30T10:48:34.071Z,8.02
2018-12-30T10:53:39.765Z,8.08
2018-12-30T10:58:47.956Z,7.98
2018-12-30T11:03:54.881Z,8.17
2018-12-30T11:09:00.765Z,8.28
2018-12-30T11:14:08.331Z,8.28
2018-12-30T11:19:16.347Z,8.11
2018-12-30T11:24:21.711Z,7.98
2018-12-30T11:29:27.075Z,7.86
2018-12-30T11:34:33.217Z,7.85
2018-12-30T11:39:39.774Z,7.85
2018-12-30T11:44:53.173Z,7.87
2018-12-30T11:50:00.823Z,7.91
2018-12-30T11:55:10.873Z,7.92
2018-12-30T12:00:16.416Z,7.86
2018-12-30T12:05:22.633Z,7.84
2018-12-30T12:10:28.471Z,7.86
2018-12-30T12:15:36.192Z,7.85
2018-12-30T12:20:42.677Z,7.99
2018-12-30T12:25:50.587Z,8.10
2018-12-30T12:30:56.144Z,8.04
2018-12-30T12:36:01.575Z,8.05
2018-12-30T12:41:06.831Z,8.08
2018-12-30T12:46:13.903Z,8.09
2018-12-30T12:51:20.361Z,8.10
2018-12-30T12:56:27.014Z,8.17
2018-12-30T13:01:34.248Z,8.18
2018-12-30T13:06:40.719Z,8.14
2018-12-30T13:11:47.369Z,8.11
2018-12-30T13:16:52.652Z,8.09
2018-12-30T13:22:05.665Z,8.07
2018-12-30T13:27:14.744Z,8.11
2018-12-30T13:32:20.530Z,8.08
2018-12-30T13:37:26.069Z,8.18
2018-12-30T13:42:31.333Z,8.61
2018-12-30T13:47:36.752Z,8.55
2018-12-30T13:52:42.002Z,8.39
2018-12-30T13:57:47.398Z,8.29
2018-12-30T14:02:52.569Z,8.26
2018-12-30T14:07:58.910Z,8.22
2018-12-30T14:13:04.009Z,8.17
2018-12-30T14:18:09.164Z,8.17
2018-12-30T14:23:14.635Z,8.13
2018-12-30T14:28:19.895Z,8.13
2018-12-30T14:33:25.010Z,8.11
2018-12-30T14:38:30.287Z,8.11
2018-12-30T14:43:38.454Z,8.17
2018-12-30T14:48:43.927Z,8.14
2018-12-30T14:53:49.345Z,8.12
2018-12-30T14:58:59.788Z,8.15
2018-12-30T15:04:04.993Z,8.18
2018-12-30T15:09:11.051Z,8.17
2018-12-30T15:14:16.153Z,8.13
2018-12-30T15:19:22.392Z,8.07
2018-12-30T15:24:27.447Z,8.13
2018-12-30T15:29:42.703Z,8.14
2018-12-30T15:34:47.861Z,8.12
2018-12-30T15:39:53.050Z,8.13
2018-12-30T15:44:58.398Z,8.13
2018-12-30T15:50:03.506Z,8.13
2018-12-30T15:55:08.581Z,8.11
2018-12-30T16:00:13.746Z,8.16
2018-12-30T16:05:18.798Z,8.16
2018-12-30T16:10:24.022Z,8.10
2018-12-30T16:15:29.180Z,8.09
2018-12-30T16:20:34.288Z,8.12
2018-12-30T16:25:39.565Z,8.17
2018-12-30T16:30:49.604Z,8.21
2018-12-30T16:35:55.436Z,8.20
2018-12-30T16:41:01.115Z,8.17
2018-12-30T16:46:06.186Z,8.19
2018-12-30T16:51:21.392Z,8.21
2018-12-30T16:56:26.408Z,8.20
2018-12-30T17:01:31.558Z,8.20
2018-12-30T17:06:36.655Z,8.12
2018-12-30T17:11:41.679Z,8.08
2018-12-30T17:16:46.734Z,8.15
2018-12-30T17:21:51.811Z,8.07
2018-12-30T17:26:58.478Z,8.10
2018-12-30T17:32:03.742Z,8.14
2018-12-30T17:37:08.934Z,8.16
2018-12-30T17:42:14.172Z,8.14
2018-12-30T17:47:19.294Z,8.15
2018-12-30T17:52:24.422Z,8.10
2018-12-30T17:57:29.838Z,8.10
2018-12-30T18:02:35.001Z,8.12
2018-12-30T18:07:40.046Z,8.10
2018-12-30T18:12:45.171Z,8.08
2018-12-30T18:17:50.341Z,8.12
2018-12-30T18:22:55.501Z,8.13
2018-12-30T18:28:00.604Z,8.12
2018-12-30T18:33:05.789Z,8.08
2018-12-30T18:38:10.971Z,8.12
2018-12-30T18:43:16.391Z,8.05
2018-12-30T18:48:21.461Z,8.08
2018-12-30T18:53:26.451Z,8.05
2018-12-30T18:58:31.667Z,8.09
2018-12-30T19:03:36.975Z,8.06
2018-12-30T19:08:42.081Z,8.12
2018-12-30T19:13:47.108Z,8.01
2018-12-30T19:18:52.225Z,8.05
2018-12-30T19:23:57.395Z,8.02
2018-12-30T19:29:02.467Z,8.00
2018-12-30T19:34:07.613Z,7.97
2018-12-30T19:39:13.424Z,7.97
2018-12-30T19:44:18.787Z,7.91
2018-12-30T19:49:24.179Z,7.86
2018-12-30T19:54:29.411Z,7.86
2018-12-30T19:59:34.474Z,7.88
2018-12-30T20:04:40.695Z,7.90
2018-12-30T20:09:46.593Z,7.83
2018-12-30T20:14:51.895Z,7.79
2018-12-30T20:19:57.141Z,7.77
2018-12-30T20:25:02.508Z,7.75
2018-12-30T20:30:08.409Z,7.75
2018-12-30T20:35:13.464Z,7.69
2018-12-30T20:40:19.631Z,7.76
2018-12-30T20:45:24.942Z,7.75
2018-12-30T20:50:31.307Z,7.71
2018-12-30T20:55:36.542Z,7.64
2018-12-30T21:00:42.142Z,7.53
2018-12-30T21:05:48.084Z,7.43
2018-12-30T21:10:53.213Z,7.48
2018-12-30T21:15:58.793Z,7.43
2018-12-30T21:21:04.378Z,7.35
2018-12-30T21:26:09.526Z,7.26
2018-12-30T21:31:24.175Z,7.31
2018-12-30T21:36:30.118Z,7.30
2018-12-30T21:41:35.649Z,7.22
2018-12-30T21:46:41.155Z,7.35
2018-12-30T21:51:47.187Z,7.45
2018-12-30T21:56:54.894Z,7.53
2018-12-30T22:01:59.738Z,7.48
2018-12-30T22:07:04.800Z,7.43
2018-12-30T22:12:10.268Z,7.32
2018-12-30T22:17:15.645Z,7.17
2018-12-30T22:22:20.758Z,7.17
2018-12-30T22:27:26.697Z,7.15
2018-12-30T22:32:31.910Z,7.22
2018-12-30T22:37:37.036Z,7.18
2018-12-30T22:42:42.262Z,7.25
2018-12-30T22:47:47.682Z,7.26
2018-12-30T22:52:53.743Z,7.22
2018-12-30T22:57:58.981Z,7.28
2018-12-30T23:03:04.699Z,7.29
2018-12-30T23:08:11.901Z,7.25
2018-12-30T23:13:17.903Z,7.32
2018-12-30T23:18:25.403Z,7.37
2018-12-30T23:23:33.094Z,7.37
2018-12-30T23:28:38.272Z,7.31
2018-12-30T23:33:43.300Z,7.34
2018-12-30T23:38:48.608Z,7.39
2018-12-30T23:43:53.652Z,7.30
2018-12-30T23:48:58.900Z,7.19
2018-12-30T23:54:04.104Z,7.19
2018-12-30T23:59:09.403Z,7.25
